Airfield :
LOGIN :

Register | Disclaimer

   EN    FR    IT 

 










Legend :    VFR   Marginal VFR   IFR   Intensive IFR   Very Intensive IFR
Visi :
Ceiling :
>= 8 km
>= 3000ft
5 to 8 km
1000 to 3000 ft
1500m to 5 km
500 to 1000 ft
800 to 1500m
200 to 500 ft
< 800m
< 200 ft
Symbols :   Thunderstorms  Fog  Heavy snow  Heavy precipitations  Wind > 20 kt
SIGMETs :     Misc.  Thunderstorms  Icing  Turbulence  Mountain Waves  Volcanic Ashes







- Airport Elevation : 5600 ft
- IATA code : SMV


LSZS - Samedan

CURRENT METAR :
  • 251950Z AUTO 01009KT 9999 FEW050 M04/M12 Q1016 RESN

EXPIRED METARs :
  • 251920Z AUTO 34010KT 9999 -SN BKN/// M03/M13 Q1016
  • 251850Z AUTO 35013KT 300V060 9999 -SN BKN/// M03/M10 Q1017
  • 251820Z AUTO 03014KT 9999 -SN BKN/// M03/M10 Q1016
  • 251750Z 04006KT 9999 BKN050 M02/M10 Q1016 RMK X
  • 251720Z 01010KT 6000 SN OVC037 M02/M09 Q1016 RMK W
  • 251650Z VRB07KT 6000 -SN OVC040 M01/M09 Q1015 RMK V

TAF TAF LSZS
Valid from the 25 at 15:00 until the 26 at 00:00 UTC


251425Z 2515/2524 02012G25KT 9999 BKN055 TX04/2515Z
PROB40
TEMPO 2515/2524 4000 -SHSN
TEMPO 2518/2522 0800 SHSN VV004
ATIS : +41 81 834 93 24
No reported NOTAMs for that airfield.



MET'MAP, your aeronautical weather chart ! - Copyright ORBIFLY December 2007 - Disclaimer

ORBIFLY MET'MAP TEAM :

Programming & Development : Alexandra Zaïnal
Concept & Development : Baudouin d'Aumeries
Co-Development & Prog : Marc-Olivier Méhu
Technical & hardware support : Manuel Goepfert

Contact : metmap@orbifly.com




SOURCES & CREDITS :

   NOAA